Time;durP1;ratioP1;P1;durP2;ratioP2;P2;SDS_P1;SDS_P2;PMS_P1;PMS_P2;Temp;Humidity;BMP_temperature;BMP_pressure;BME280_temperature;BME280_humidity;BME280_pressure;Samples;Min_cycle;Max_cycle;Signal;HPM_P1;HPM_P2
2022/11/18 00:01:49;;;;;;;0.40;0.40;;;;;;;;;;6279050;22;20066;-90
2022/11/18 00:04:30;;;;;;;0.30;0.30;;;;;;;;;;6311746;22;20019;-89
2022/11/18 00:06:59;;;;;;;;;;;;;;;;;;6308982;22;20015;-89
2022/11/18 00:09:25;;;;;;;0.60;0.60;;;;;;;;;;6334076;22;19956;-88
2022/11/18 00:14:37;;;;;;;0.30;0.30;;;;;;;;;;6332227;22;20026;-89
2022/11/18 00:17:06;;;;;;;0.30;0.30;;;;;;;;;;6330806;22;20014;-89
2022/11/18 00:19:38;;;;;;;0.40;0.40;;;;;;;;;;6310002;22;20018;-89
2022/11/18 00:22:05;;;;;;;0.40;0.40;;;;;;;;;;6304724;22;20030;-89
2022/11/18 00:24:32;;;;;;;0.30;0.30;;;;;;;;;;6306326;22;20026;-88
2022/11/18 00:26:59;;;;;;;0.20;0.20;;;;;;;;;;6307478;22;20010;-89
2022/11/18 00:29:31;;;;;;;0.40;0.40;;;;;;;;;;6308761;22;20021;-89
2022/11/18 00:32:00;;;;;;;0.30;0.30;;;;;;;;;;6332576;22;20033;-90
2022/11/18 00:34:29;;;;;;;0.30;0.30;;;;;;;;;;6333615;22;20021;-89
2022/11/18 00:36:58;;;;;;;0.25;0.25;;;;;;;;;;6310724;22;20068;-89
2022/11/18 00:39:30;;;;;;;0.30;0.30;;;;;;;;;;6332634;22;20037;-90
2022/11/18 00:44:47;;;;;;;0.40;0.40;;;;;;;;;;6359604;22;20026;-89
2022/11/18 00:47:14;;;;;;;0.30;0.30;;;;;;;;;;6333868;22;20080;-88
2022/11/18 00:49:42;;;;;;;0.30;0.30;;;;;;;;;;6308534;22;20019;-87
2022/11/18 00:52:09;;;;;;;0.30;0.30;;;;;;;;;;6309888;22;20026;-89
2022/11/18 00:54:37;;;;;;;0.47;0.47;;;;;;;;;;6332038;22;20037;-89
2022/11/18 00:57:04;;;;;;;0.20;0.20;;;;;;;;;;6332603;22;20015;-87
2022/11/18 00:59:31;;;;;;;0.30;0.30;;;;;;;;;;6332656;22;20046;-89
2022/11/18 01:02:00;;;;;;;0.40;0.40;;;;;;;;;;6311358;22;20035;-89
2022/11/18 01:04:26;;;;;;;0.50;0.50;;;;;;;;;;6308506;22;20044;-87
2022/11/18 01:06:56;;;;;;;0.30;0.30;;;;;;;;;;6334188;22;20018;-89
2022/11/18 01:09:23;;;;;;;0.40;0.40;;;;;;;;;;6336249;22;20041;-88
2022/11/18 01:14:37;;;;;;;0.30;0.30;;;;;;;;;;6339397;22;20022;-90
2022/11/18 01:17:10;;;;;;;0.40;0.40;;;;;;;;;;6305516;22;20018;-89
2022/11/18 01:19:56;;;;;;;0.40;0.40;;;;;;;;;;6362524;22;20021;-90
2022/11/18 01:22:22;;;;;;;0.40;0.40;;;;;;;;;;6304953;22;20037;-88
2022/11/18 01:24:49;;;;;;;0.30;0.30;;;;;;;;;;6307807;22;20019;-90
2022/11/18 01:27:15;;;;;;;0.30;0.30;;;;;;;;;;6308602;22;20018;-88
2022/11/18 01:29:41;;;;;;;0.30;0.30;;;;;;;;;;6283908;22;20348;-88
2022/11/18 01:32:09;;;;;;;0.40;0.40;;;;;;;;;;6309067;22;20007;-88
2022/11/18 01:34:36;;;;;;;0.35;0.35;;;;;;;;;;6283575;22;20041;-89
2022/11/18 01:37:05;;;;;;;0.40;0.40;;;;;;;;;;6361061;22;20043;-89
2022/11/18 01:39:31;;;;;;;0.40;0.40;;;;;;;;;;6309294;22;20020;-89
2022/11/18 01:41:59;;;;;;;0.40;0.40;;;;;;;;;;6309213;22;20015;-89
2022/11/18 01:44:47;;;;;;;0.30;0.30;;;;;;;;;;6313334;22;20029;-89
2022/11/18 01:47:14;;;;;;;0.30;0.30;;;;;;;;;;6308614;22;20026;-89
2022/11/18 01:49:44;;;;;;;0.20;0.20;;;;;;;;;;6307931;22;20019;-89
2022/11/18 01:52:10;;;;;;;0.40;0.40;;;;;;;;;;6332110;22;20068;-89
2022/11/18 01:54:40;;;;;;;0.30;0.30;;;;;;;;;;6308162;22;19999;-89
2022/11/18 01:57:12;;;;;;;0.30;0.30;;;;;;;;;;6282104;22;20015;-90
2022/11/18 01:59:39;;;;;;;0.30;0.30;;;;;;;;;;6306835;22;20015;-89
2022/11/18 02:02:12;;;;;;;0.30;0.30;;;;;;;;;;6333983;22;20021;-90
2022/11/18 02:04:40;;;;;;;0.40;0.40;;;;;;;;;;6308907;22;20097;-89
2022/11/18 02:07:08;;;;;;;0.43;0.43;;;;;;;;;;6311123;22;20002;-90
2022/11/18 02:09:38;;;;;;;0.40;0.40;;;;;;;;;;6307986;22;20007;-89
2022/11/18 02:12:04;;;;;;;0.30;0.30;;;;;;;;;;6332014;22;20045;-89
2022/11/18 02:14:35;;;;;;;0.40;0.40;;;;;;;;;;6308269;22;20059;-88
2022/11/18 02:17:13;;;;;;;0.20;0.20;;;;;;;;;;6306872;22;20014;-89
2022/11/18 02:20:00;;;;;;;0.30;0.30;;;;;;;;;;6338724;22;20019;-90
2022/11/18 02:22:45;;;;;;;0.25;0.25;;;;;;;;;;6338222;22;20018;-89
2022/11/18 02:25:30;;;;;;;0.20;0.20;;;;;;;;;;6312840;22;20056;-90
2022/11/18 02:28:08;;;;;;;0.35;0.35;;;;;;;;;;6312339;22;20023;-91
2022/11/18 02:33:12;;;;;;;0.38;0.38;;;;;;;;;;6335051;22;20027;-92
2022/11/18 02:35:52;;;;;;;0.22;0.22;;;;;;;;;;6310391;22;20011;-93
2022/11/18 02:38:18;;;;;;;0.32;0.32;;;;;;;;;;6283518;22;20019;-94
2022/11/18 02:40:49;;;;;;;0.20;0.20;;;;;;;;;;6285407;22;20049;-93
2022/11/18 02:43:29;;;;;;;0.30;0.30;;;;;;;;;;6309286;22;20073;-93
2022/11/18 02:51:31;;;;;;;0.20;0.20;;;;;;;;;;6363105;22;20007;-93
2022/11/18 02:54:05;;;;;;;0.25;0.25;;;;;;;;;;6314570;22;20026;-94
2022/11/18 02:56:38;;;;;;;0.20;0.20;;;;;;;;;;6315554;22;20019;-95
2022/11/18 02:59:08;;;;;;;0.40;0.40;;;;;;;;;;6340619;22;20023;-94
2022/11/18 03:01:35;;;;;;;0.40;0.40;;;;;;;;;;6313341;22;20003;-93
2022/11/18 03:04:04;;;;;;;0.30;0.30;;;;;;;;;;6289274;22;20002;-93
2022/11/18 03:06:43;;;;;;;0.40;0.40;;;;;;;;;;6309366;22;20019;-94
2022/11/18 03:09:30;;;;;;;0.30;0.30;;;;;;;;;;6341022;22;20017;-94
2022/11/18 03:11:58;;;;;;;0.30;0.30;;;;;;;;;;6312857;22;20053;-94
2022/11/18 03:14:46;;;;;;;0.40;0.40;;;;;;;;;;6313734;22;20026;-94
2022/11/18 03:17:52;;;;;;;0.30;0.30;;;;;;;;;;6335416;22;20015;-93
2022/11/18 03:20:50;;;;;;;0.25;0.25;;;;;;;;;;6343174;22;20021;-90
2022/11/18 03:23:22;;;;;;;0.30;0.30;;;;;;;;;;6334418;22;20014;-94
2022/11/18 03:26:01;;;;;;;0.20;0.20;;;;;;;;;;6340188;22;20019;-94
2022/11/18 03:28:53;;;;;;;0.30;0.30;;;;;;;;;;6313844;22;20011;-89
2022/11/18 03:31:25;;;;;;;0.50;0.50;;;;;;;;;;6311899;22;20058;-90
2022/11/18 03:34:14;;;;;;;0.40;0.40;;;;;;;;;;6336608;22;20356;-89
2022/11/18 03:36:48;;;;;;;0.30;0.30;;;;;;;;;;6309624;22;20023;-89
2022/11/18 03:39:20;;;;;;;0.30;0.30;;;;;;;;;;6313713;22;20018;-88
2022/11/18 03:42:13;;;;;;;0.30;0.30;;;;;;;;;;6341509;22;20015;-89
2022/11/18 03:44:46;;;;;;;0.40;0.40;;;;;;;;;;6311310;22;20047;-89
2022/11/18 03:47:17;;;;;;;0.30;0.30;;;;;;;;;;6310925;22;20023;-89
2022/11/18 03:49:46;;;;;;;0.30;0.30;;;;;;;;;;6282401;22;20019;-88
2022/11/18 03:52:19;;;;;;;0.28;0.28;;;;;;;;;;6356066;22;20022;-89
2022/11/18 03:54:54;;;;;;;0.30;0.30;;;;;;;;;;6336647;22;20014;-88
2022/11/18 03:57:27;;;;;;;0.25;0.25;;;;;;;;;;6335449;22;20042;-88
2022/11/18 03:59:59;;;;;;;0.30;0.30;;;;;;;;;;6311082;22;20032;-90
2022/11/18 04:02:29;;;;;;;0.30;0.30;;;;;;;;;;6335177;22;20440;-89
2022/11/18 04:04:57;;;;;;;0.43;0.43;;;;;;;;;;6335506;22;20011;-91
2022/11/18 04:07:44;;;;;;;0.30;0.30;;;;;;;;;;6362787;22;20014;-90
2022/11/18 04:10:16;;;;;;;0.28;0.28;;;;;;;;;;6336518;22;20390;-89
2022/11/18 04:12:51;;;;;;;0.30;0.30;;;;;;;;;;6336198;22;20007;-90
2022/11/18 04:15:17;;;;;;;0.30;0.30;;;;;;;;;;6364446;22;20007;-89
2022/11/18 04:17:43;;;;;;;0.45;0.45;;;;;;;;;;6334040;22;20040;-90
2022/11/18 04:20:14;;;;;;;0.75;0.75;;;;;;;;;;6337168;22;20050;-89
2022/11/18 04:22:40;;;;;;;0.30;0.30;;;;;;;;;;6332884;22;20040;-90
2022/11/18 04:25:07;;;;;;;0.20;0.20;;;;;;;;;;6335941;22;20042;-89
2022/11/18 04:27:33;;;;;;;0.20;0.20;;;;;;;;;;6337786;22;20025;-94
2022/11/18 04:30:05;;;;;;;0.25;0.25;;;;;;;;;;6366016;22;20015;-93
2022/11/18 04:32:31;;;;;;;0.40;0.40;;;;;;;;;;6365406;22;20026;-92
2022/11/18 04:35:04;;;;;;;0.30;0.30;;;;;;;;;;6339447;22;20018;-93
2022/11/18 04:37:37;;;;;;;0.30;0.30;;;;;;;;;;6365922;22;20037;-93
2022/11/18 04:40:05;;;;;;;0.20;0.20;;;;;;;;;;6339958;22;20023;-94
2022/11/18 04:42:34;;;;;;;0.50;0.50;;;;;;;;;;6364699;22;20058;-95
2022/11/18 04:45:12;;;;;;;0.40;0.40;;;;;;;;;;6366976;22;20015;-95
2022/11/18 04:47:43;;;;;;;0.40;0.40;;;;;;;;;;6365575;22;20049;-93
2022/11/18 04:50:11;;;;;;;0.38;0.38;;;;;;;;;;6339861;22;20021;-94
2022/11/18 04:52:46;;;;;;;0.30;0.30;;;;;;;;;;6339097;22;20093;-94
2022/11/18 04:55:15;;;;;;;0.20;0.20;;;;;;;;;;6341194;22;20028;-93
2022/11/18 04:57:42;;;;;;;0.30;0.30;;;;;;;;;;6314545;22;20003;-94
2022/11/18 05:03:03;;;;;;;0.30;0.30;;;;;;;;;;6300217;22;20023;-93
2022/11/18 05:05:30;;;;;;;0.30;0.30;;;;;;;;;;6303102;22;20032;-93
2022/11/18 05:15:47;;;;;;;0.32;0.32;;;;;;;;;;6358019;22;20036;-93
2022/11/18 05:21:04;;;;;;;0.30;0.30;;;;;;;;;;6341726;22;20027;-93
2022/11/18 05:29:08;;;;;;;0.30;0.30;;;;;;;;;;6348949;22;20019;-92
2022/11/18 05:31:39;;;;;;;0.20;0.20;;;;;;;;;;6337728;22;20027;-94
2022/11/18 05:34:05;;;;;;;0.30;0.30;;;;;;;;;;6361811;22;20071;-94
2022/11/18 05:36:43;;;;;;;0.30;0.30;;;;;;;;;;6337547;22;20006;-94
2022/11/18 05:39:21;;;;;;;0.25;0.25;;;;;;;;;;6365072;22;20091;-94
2022/11/18 05:44:48;;;;;;;0.20;0.20;;;;;;;;;;6365173;22;20010;-94
2022/11/18 05:47:26;;;;;;;0.30;0.30;;;;;;;;;;6361345;22;20011;-93
2022/11/18 05:49:56;;;;;;;0.20;0.20;;;;;;;;;;6337807;22;20058;-95
2022/11/18 05:52:25;;;;;;;0.20;0.20;;;;;;;;;;6336756;22;20036;-92
2022/11/18 05:55:00;;;;;;;0.20;0.20;;;;;;;;;;6365077;22;20023;-94
2022/11/18 05:57:33;;;;;;;0.20;0.20;;;;;;;;;;6366210;22;20003;-95
2022/11/18 06:00:01;;;;;;;0.30;0.30;;;;;;;;;;6315765;22;20021;-93
2022/11/18 06:02:29;;;;;;;0.30;0.30;;;;;;;;;;6341281;22;20028;-93
2022/11/18 06:05:01;;;;;;;0.20;0.20;;;;;;;;;;6338151;22;20066;-96
2022/11/18 06:07:42;;;;;;;0.73;0.73;;;;;;;;;;6341857;22;20003;-94
2022/11/18 06:10:12;;;;;;;0.40;0.40;;;;;;;;;;6340893;22;20007;-92
2022/11/18 06:12:45;;;;;;;0.20;0.20;;;;;;;;;;6341702;22;20014;-94
2022/11/18 06:15:38;;;;;;;0.30;0.30;;;;;;;;;;6351598;22;20039;-93
2022/11/18 06:18:11;;;;;;;0.20;0.20;;;;;;;;;;6364486;22;20003;-92
2022/11/18 06:20:42;;;;;;;0.30;0.30;;;;;;;;;;6363939;22;20048;-92
2022/11/18 06:23:12;;;;;;;0.30;0.30;;;;;;;;;;6365025;22;20044;-94
2022/11/18 06:25:39;;;;;;;0.30;0.30;;;;;;;;;;6312467;22;20029;-94
2022/11/18 06:28:07;;;;;;;0.32;0.32;;;;;;;;;;6313166;22;20075;-93
2022/11/18 06:30:34;;;;;;;0.30;0.30;;;;;;;;;;6339849;22;20066;-94
2022/11/18 06:33:01;;;;;;;0.40;0.40;;;;;;;;;;6339046;22;20034;-92
2022/11/18 06:35:30;;;;;;;0.30;0.30;;;;;;;;;;6339740;22;20018;-94
2022/11/18 06:37:59;;;;;;;0.30;0.30;;;;;;;;;;6365207;22;20007;-94
2022/11/18 06:40:36;;;;;;;0.30;0.30;;;;;;;;;;6365237;22;20043;-93
2022/11/18 06:48:42;;;;;;;0.20;0.20;;;;;;;;;;6342642;22;20026;-94
2022/11/18 06:51:14;;;;;;;0.35;0.35;;;;;;;;;;6338528;22;20037;-94
2022/11/18 06:53:41;;;;;;;1.48;1.38;;;;;;;;;;6338552;22;20023;-92
2022/11/18 06:56:24;;;;;;;0.40;0.40;;;;;;;;;;6341527;22;20010;-94
2022/11/18 06:59:02;;;;;;;0.40;0.40;;;;;;;;;;6365659;22;20030;-95
2022/11/18 07:01:29;;;;;;;0.30;0.30;;;;;;;;;;6364550;22;20048;-92
2022/11/18 07:03:59;;;;;;;0.30;0.30;;;;;;;;;;6313873;22;20010;-94
2022/11/18 07:06:31;;;;;;;0.30;0.30;;;;;;;;;;6366337;22;20023;-93
2022/11/18 07:08:59;;;;;;;0.25;0.25;;;;;;;;;;6365607;22;20026;-92
2022/11/18 07:16:59;;;;;;;0.40;0.40;;;;;;;;;;6303654;22;20031;-93
2022/11/18 07:19:28;;;;;;;0.30;0.30;;;;;;;;;;6302932;22;20024;-94
2022/11/18 07:22:04;;;;;;;0.30;0.30;;;;;;;;;;6302351;22;20007;-92
2022/11/18 07:24:30;;;;;;;0.30;0.30;;;;;;;;;;6302708;22;20038;-94
2022/11/18 07:27:00;;;;;;;0.30;0.30;;;;;;;;;;6253529;22;20004;-93
2022/11/18 07:29:36;;;;;;;0.20;0.20;;;;;;;;;;6256343;22;20016;-93
2022/11/18 07:32:02;;;;;;;0.20;0.20;;;;;;;;;;6277766;22;20034;-94
2022/11/18 07:34:29;;;;;;;0.40;0.40;;;;;;;;;;6277549;22;20015;-93
2022/11/18 07:39:52;;;;;;;0.50;0.50;;;;;;;;;;6356560;22;20010;-94
2022/11/18 07:42:19;;;;;;;0.30;0.30;;;;;;;;;;6364892;22;20301;-93
2022/11/18 07:44:45;;;;;;;0.20;0.20;;;;;;;;;;6337502;22;20054;-93
2022/11/18 07:47:11;;;;;;;0.40;0.40;;;;;;;;;;6338672;22;20025;-94
2022/11/18 07:49:40;;;;;;;0.30;0.30;;;;;;;;;;6339363;22;20002;-95
2022/11/18 07:52:22;;;;;;;0.32;0.32;;;;;;;;;;6338164;22;20023;-94
2022/11/18 07:54:55;;;;;;;0.40;0.40;;;;;;;;;;6361116;22;20007;-93
2022/11/18 07:57:22;;;;;;;0.30;0.30;;;;;;;;;;6339616;22;19995;-94
2022/11/18 08:07:42;;;;;;;0.30;0.30;;;;;;;;;;6299529;22;20024;-89
2022/11/18 08:10:18;;;;;;;0.40;0.40;;;;;;;;;;6275486;22;20039;-89
2022/11/18 08:12:45;;;;;;;0.40;0.40;;;;;;;;;;6298900;22;20341;-89
2022/11/18 08:15:12;;;;;;;0.30;0.30;;;;;;;;;;6270871;22;20042;-89
2022/11/18 08:17:41;;;;;;;0.32;0.32;;;;;;;;;;6271462;22;20007;-88
2022/11/18 08:20:10;;;;;;;0.30;0.30;;;;;;;;;;6272432;22;20061;-89
2022/11/18 08:22:37;;;;;;;0.43;0.43;;;;;;;;;;6272700;22;20030;-90
2022/11/18 08:25:04;;;;;;;0.30;0.30;;;;;;;;;;6270912;22;20000;-90
2022/11/18 08:27:31;;;;;;;0.40;0.40;;;;;;;;;;6271662;22;20012;-89
2022/11/18 08:29:59;;;;;;;0.50;0.50;;;;;;;;;;6269090;22;20321;-89
2022/11/18 08:32:35;;;;;;;0.35;0.35;;;;;;;;;;6300521;22;20095;-90
2022/11/18 08:35:09;;;;;;;0.40;0.40;;;;;;;;;;6297021;22;20035;-89
2022/11/18 08:37:35;;;;;;;0.40;0.40;;;;;;;;;;6272454;22;20026;-90
2022/11/18 08:40:04;;;;;;;0.40;0.40;;;;;;;;;;6247193;22;20011;-90
2022/11/18 08:42:31;;;;;;;0.40;0.40;;;;;;;;;;6273391;22;20079;-88
2022/11/18 08:44:58;;;;;;;0.20;0.20;;;;;;;;;;6273758;22;20020;-88
2022/11/18 08:58:01;;;;;;;0.30;0.30;;;;;;;;;;6146191;22;1298710;-89
2022/11/18 09:00:27;;;;;;;0.40;0.40;;;;;;;;;;6135182;23;20065;-88
2022/11/18 09:02:53;;;;;;;0.40;0.40;;;;;;;;;;6133222;23;20021;-89
2022/11/18 09:05:20;;;;;;;0.40;0.40;;;;;;;;;;6136477;23;20025;-88
2022/11/18 09:07:57;;;;;;;0.50;0.50;;;;;;;;;;6161279;23;20017;-89
2022/11/18 09:10:23;;;;;;;0.40;0.40;;;;;;;;;;6136371;23;20021;-89
2022/11/18 09:12:49;;;;;;;0.38;0.38;;;;;;;;;;6154510;23;20052;-87
2022/11/18 09:15:17;;;;;;;0.40;0.40;;;;;;;;;;6132220;23;20017;-88
2022/11/18 09:17:50;;;;;;;0.30;0.30;;;;;;;;;;6111487;23;20013;-89
2022/11/18 09:20:16;;;;;;;0.40;0.40;;;;;;;;;;6131012;23;20025;-88
2022/11/18 09:22:43;;;;;;;0.30;0.30;;;;;;;;;;6133404;23;20021;-89
2022/11/18 09:25:09;;;;;;;0.30;0.30;;;;;;;;;;6135628;23;20005;-88
2022/11/18 09:27:38;;;;;;;0.38;0.38;;;;;;;;;;6160278;23;20049;-88
2022/11/18 09:30:13;;;;;;;0.40;0.40;;;;;;;;;;6112573;23;20028;-88
2022/11/18 09:32:39;;;;;;;0.30;0.30;;;;;;;;;;6131608;23;20471;-88
2022/11/18 09:35:13;;;;;;;0.40;0.40;;;;;;;;;;6135217;23;20032;-88
2022/11/18 09:37:40;;;;;;;0.30;0.30;;;;;;;;;;6158114;23;20097;-89
2022/11/18 09:40:13;;;;;;;0.30;0.30;;;;;;;;;;6139002;23;20037;-88
2022/11/18 09:42:48;;;;;;;0.40;0.40;;;;;;;;;;6135323;23;20073;-89
2022/11/18 09:45:47;;;;;;;0.20;0.20;;;;;;;;;;6133159;23;20024;-89
2022/11/18 09:48:18;;;;;;;0.32;0.32;;;;;;;;;;6005700;23;20028;-90
2022/11/18 09:50:44;;;;;;;0.60;0.60;;;;;;;;;;6132043;23;20041;-88
2022/11/18 09:53:16;;;;;;;0.30;0.30;;;;;;;;;;6135033;23;20068;-88
2022/11/18 09:56:04;;;;;;;0.30;0.30;;;;;;;;;;6160398;23;20024;-89
2022/11/18 09:58:30;;;;;;;;;;;;;;;;;;6124642;23;20385;-88
2022/11/18 10:01:00;;;;;;;0.50;0.50;;;;;;;;;;6147096;23;19912;-89
2022/11/18 10:03:31;;;;;;;0.30;0.30;;;;;;;;;;6124095;23;20026;-89
2022/11/18 10:06:21;;;;;;;0.40;0.40;;;;;;;;;;6123928;23;20041;-89
2022/11/18 10:09:06;;;;;;;0.50;0.50;;;;;;;;;;6124280;23;20045;-90
2022/11/18 10:11:40;;;;;;;0.30;0.30;;;;;;;;;;6122460;23;20026;-89
2022/11/18 10:14:14;;;;;;;0.30;0.30;;;;;;;;;;6123535;23;20022;-88
2022/11/18 10:17:05;;;;;;;0.30;0.30;;;;;;;;;;6146280;23;20841;-89
2022/11/18 10:19:34;;;;;;;0.30;0.30;;;;;;;;;;6122564;23;20018;-87
2022/11/18 10:22:01;;;;;;;0.30;0.30;;;;;;;;;;6120830;23;20519;-88
2022/11/18 10:24:40;;;;;;;0.20;0.20;;;;;;;;;;6146842;23;20456;-88
2022/11/18 10:27:20;;;;;;;0.40;0.40;;;;;;;;;;6147880;23;20022;-88
2022/11/18 10:29:52;;;;;;;0.45;0.45;;;;;;;;;;6120452;23;20069;-89
2022/11/18 10:32:26;;;;;;;0.30;0.30;;;;;;;;;;6120564;23;20337;-89
2022/11/18 10:35:23;;;;;;;0.40;0.40;;;;;;;;;;6147723;23;20062;-88
2022/11/18 10:38:00;;;;;;;0.30;0.30;;;;;;;;;;6121704;23;20017;-89
2022/11/18 10:40:30;;;;;;;0.30;0.30;;;;;;;;;;6123873;23;20001;-89
2022/11/18 10:42:56;;;;;;;0.30;0.30;;;;;;;;;;6121002;23;20025;-90
2022/11/18 10:45:27;;;;;;;0.40;0.40;;;;;;;;;;6097249;23;20028;-88
2022/11/18 10:48:20;;;;;;;0.35;0.35;;;;;;;;;;6120612;23;20068;-88
2022/11/18 10:50:49;;;;;;;;;;;;;;;;;;6147360;23;20022;-89
2022/11/18 10:53:32;;;;;;;0.30;0.30;;;;;;;;;;6148174;23;19927;-88
2022/11/18 10:56:05;;;;;;;0.20;0.20;;;;;;;;;;6146401;23;20049;-89
2022/11/18 10:58:45;;;;;;;0.32;0.32;;;;;;;;;;6099928;23;20022;-89
2022/11/18 11:01:26;;;;;;;0.30;0.30;;;;;;;;;;6127225;23;20021;-89
2022/11/18 11:03:56;;;;;;;0.20;0.20;;;;;;;;;;6118429;23;20022;-89
2022/11/18 11:06:32;;;;;;;0.30;0.30;;;;;;;;;;6124847;23;20068;-88
2022/11/18 11:09:03;;;;;;;0.32;0.32;;;;;;;;;;6146034;23;20013;-90
2022/11/18 11:11:31;;;;;;;0.35;0.35;;;;;;;;;;6119680;23;20025;-89
2022/11/18 11:14:06;;;;;;;0.30;0.30;;;;;;;;;;6124260;23;20029;-88
2022/11/18 11:16:35;;;;;;;0.45;0.45;;;;;;;;;;6121858;23;20045;-89
2022/11/18 11:19:03;;;;;;;0.40;0.40;;;;;;;;;;6120291;23;20028;-89
2022/11/18 11:21:30;;;;;;;0.50;0.50;;;;;;;;;;6123751;23;20018;-88
2022/11/18 11:23:58;;;;;;;0.20;0.20;;;;;;;;;;6096939;23;20026;-89
2022/11/18 11:26:51;;;;;;;0.30;0.30;;;;;;;;;;6124996;23;20042;-90
2022/11/18 11:29:23;;;;;;;0.38;0.38;;;;;;;;;;6124797;23;20036;-88
2022/11/18 11:32:08;;;;;;;0.30;0.30;;;;;;;;;;6122344;23;20045;-89
2022/11/18 11:34:53;;;;;;;0.30;0.30;;;;;;;;;;6120948;23;20034;-89
2022/11/18 11:37:29;;;;;;;0.35;0.35;;;;;;;;;;6119177;23;20448;-88
2022/11/18 11:40:20;;;;;;;0.30;0.30;;;;;;;;;;6120996;23;20013;-89
2022/11/18 11:43:24;;;;;;;0.73;0.73;;;;;;;;;;6148000;23;20018;-88
2022/11/18 11:46:07;;;;;;;0.30;0.30;;;;;;;;;;6133192;23;20022;-89
2022/11/18 11:48:36;;;;;;;0.30;0.30;;;;;;;;;;6122060;23;20025;-89
2022/11/18 11:51:27;;;;;;;0.30;0.30;;;;;;;;;;6146426;23;20025;-87
2022/11/18 11:54:08;;;;;;;0.40;0.40;;;;;;;;;;6122000;23;20032;-88
2022/11/18 11:56:43;;;;;;;0.40;0.40;;;;;;;;;;6121315;23;20018;-87
2022/11/18 11:59:39;;;;;;;0.40;0.40;;;;;;;;;;6121104;23;20014;-90
2022/11/18 12:02:27;;;;;;;0.30;0.30;;;;;;;;;;6073031;23;20018;-89
2022/11/18 12:05:10;;;;;;;0.40;0.40;;;;;;;;;;6121328;23;20024;-90
2022/11/18 12:08:06;;;;;;;0.47;0.47;;;;;;;;;;6119788;23;20073;-88
2022/11/18 12:10:48;;;;;;;0.30;0.30;;;;;;;;;;6090283;23;20022;-88
2022/11/18 12:13:17;;;;;;;0.47;0.47;;;;;;;;;;6126728;23;20034;-88
2022/11/18 12:15:43;;;;;;;0.30;0.30;;;;;;;;;;6121883;23;20058;-88
2022/11/18 12:18:10;;;;;;;0.30;0.30;;;;;;;;;;6122130;23;20049;-89
2022/11/18 12:20:41;;;;;;;0.43;0.43;;;;;;;;;;6121533;23;20037;-87
2022/11/18 12:23:27;;;;;;;0.30;0.30;;;;;;;;;;6119426;23;20022;-89
2022/11/18 12:26:10;;;;;;;0.40;0.40;;;;;;;;;;6114489;23;20029;-87
2022/11/18 12:28:44;;;;;;;0.30;0.30;;;;;;;;;;6125567;23;20372;-88
2022/11/18 12:34:31;;;;;;;0.30;0.30;;;;;;;;;;6127367;23;20017;-88
2022/11/18 12:37:20;;;;;;;0.40;0.40;;;;;;;;;;6148393;23;20046;-88
2022/11/18 12:40:09;;;;;;;0.60;0.60;;;;;;;;;;6122464;23;20096;-89
2022/11/18 12:45:46;;;;;;;0.38;0.38;;;;;;;;;;6146135;23;20066;-89
2022/11/18 12:48:29;;;;;;;0.38;0.38;;;;;;;;;;6141213;23;20560;-89
2022/11/18 12:51:19;;;;;;;0.30;0.30;;;;;;;;;;6122522;23;20006;-88
2022/11/18 12:53:47;;;;;;;0.30;0.30;;;;;;;;;;6123135;23;20024;-89
2022/11/18 12:56:33;;;;;;;0.50;0.50;;;;;;;;;;6144180;23;20033;-88
2022/11/18 12:59:15;;;;;;;0.40;0.40;;;;;;;;;;6093424;23;20049;-89
2022/11/18 13:02:00;;;;;;;0.30;0.30;;;;;;;;;;6125253;23;20029;-89
2022/11/18 13:04:38;;;;;;;0.30;0.30;;;;;;;;;;6126378;23;20017;-89
2022/11/18 13:10:28;;;;;;;0.40;0.40;;;;;;;;;;6137906;23;20048;-87
2022/11/18 13:19:20;;;;;;;0.40;0.40;;;;;;;;;;6175667;23;20045;-88
2022/11/18 13:25:05;;;;;;;0.30;0.30;;;;;;;;;;6149700;23;20057;-88
2022/11/18 13:27:46;;;;;;;0.40;0.40;;;;;;;;;;6119046;23;20033;-89
2022/11/18 13:30:16;;;;;;;0.30;0.30;;;;;;;;;;6124594;23;20021;-89
2022/11/18 13:32:44;;;;;;;0.40;0.40;;;;;;;;;;6142246;23;20052;-89
2022/11/18 13:35:13;;;;;;;0.40;0.40;;;;;;;;;;6127040;23;20006;-89
2022/11/18 13:38:10;;;;;;;0.43;0.43;;;;;;;;;;6142548;23;20022;-89
2022/11/18 13:41:12;;;;;;;0.30;0.30;;;;;;;;;;6121526;23;20444;-89
2022/11/18 13:43:47;;;;;;;0.40;0.40;;;;;;;;;;6123067;23;20020;-90
2022/11/18 13:46:18;;;;;;;0.30;0.30;;;;;;;;;;6148420;23;20085;-88
2022/11/18 13:48:54;;;;;;;0.40;0.40;;;;;;;;;;6127168;23;20048;-89
2022/11/18 13:51:22;;;;;;;0.30;0.30;;;;;;;;;;6124926;23;20032;-87
2022/11/18 13:53:48;;;;;;;0.40;0.40;;;;;;;;;;6101941;23;20018;-89
2022/11/18 13:56:25;;;;;;;0.40;0.40;;;;;;;;;;6125141;23;20023;-88
2022/11/18 13:58:55;;;;;;;0.40;0.40;;;;;;;;;;6120935;23;20460;-91
2022/11/18 14:01:25;;;;;;;0.30;0.30;;;;;;;;;;6119966;23;20021;-89
2022/11/18 14:04:00;;;;;;;0.40;0.40;;;;;;;;;;6121202;23;20023;-89
2022/11/18 14:06:27;;;;;;;0.40;0.40;;;;;;;;;;6120070;23;20045;-89
2022/11/18 14:09:23;;;;;;;0.30;0.30;;;;;;;;;;6121008;23;20068;-89
2022/11/18 14:12:14;;;;;;;0.30;0.30;;;;;;;;;;6113885;23;20018;-88
2022/11/18 14:14:44;;;;;;;0.30;0.30;;;;;;;;;;6120216;23;20025;-89
2022/11/18 14:17:22;;;;;;;0.30;0.30;;;;;;;;;;6143485;23;20081;-89
2022/11/18 14:19:58;;;;;;;0.40;0.40;;;;;;;;;;6119143;23;20021;-87
2022/11/18 14:22:32;;;;;;;0.43;0.43;;;;;;;;;;6113601;23;20018;-88
2022/11/18 14:25:23;;;;;;;0.40;0.40;;;;;;;;;;6120881;23;20018;-88
2022/11/18 14:27:53;;;;;;;0.30;0.30;;;;;;;;;;6143463;23;20022;-89
2022/11/18 14:30:27;;;;;;;0.40;0.40;;;;;;;;;;6119319;23;20014;-88
2022/11/18 14:33:13;;;;;;;0.40;0.40;;;;;;;;;;6120841;23;20070;-89
2022/11/18 14:35:40;;;;;;;0.40;0.40;;;;;;;;;;6120809;23;20028;-89
2022/11/18 14:38:14;;;;;;;0.40;0.40;;;;;;;;;;6144834;23;20022;-87
2022/11/18 14:40:40;;;;;;;0.40;0.40;;;;;;;;;;6120016;23;20022;-88
2022/11/18 14:43:10;;;;;;;0.28;0.28;;;;;;;;;;6119449;23;20041;-87
2022/11/18 14:45:48;;;;;;;0.30;0.30;;;;;;;;;;6121678;23;20033;-88
2022/11/18 14:48:18;;;;;;;0.20;0.20;;;;;;;;;;6119486;23;20063;-88
2022/11/18 14:50:46;;;;;;;0.88;0.88;;;;;;;;;;6118545;23;20265;-89
2022/11/18 14:53:37;;;;;;;0.30;0.30;;;;;;;;;;6143962;23;20018;-88
2022/11/18 14:56:11;;;;;;;0.70;0.70;;;;;;;;;;6105997;23;20321;-88
2022/11/18 14:58:40;;;;;;;0.45;0.45;;;;;;;;;;6120163;23;20123;-88
2022/11/18 15:01:11;;;;;;;0.30;0.30;;;;;;;;;;6118270;23;20021;-88
2022/11/18 15:03:37;;;;;;;0.30;0.30;;;;;;;;;;6118611;23;20028;-88
2022/11/18 15:06:03;;;;;;;0.40;0.40;;;;;;;;;;6118829;23;20074;-87
2022/11/18 15:08:29;;;;;;;0.40;0.40;;;;;;;;;;6120346;23;20014;-88
2022/11/18 15:10:55;;;;;;;0.30;0.30;;;;;;;;;;6120928;23;20024;-87
2022/11/18 15:13:21;;;;;;;0.30;0.30;;;;;;;;;;6120879;23;20068;-86
2022/11/18 15:15:56;;;;;;;0.45;0.45;;;;;;;;;;6121105;23;20021;-88
2022/11/18 15:18:47;;;;;;;0.40;0.40;;;;;;;;;;6123434;23;20109;-88
2022/11/18 15:21:14;;;;;;;0.40;0.40;;;;;;;;;;6117785;23;20061;-89
2022/11/18 15:23:41;;;;;;;0.40;0.40;;;;;;;;;;6122420;23;20022;-88
2022/11/18 15:26:19;;;;;;;0.38;0.38;;;;;;;;;;6097372;23;20022;-88
2022/11/18 15:28:50;;;;;;;0.30;0.30;;;;;;;;;;6121873;23;20018;-88
2022/11/18 15:31:20;;;;;;;0.40;0.40;;;;;;;;;;6120574;23;20024;-88
2022/11/18 15:33:50;;;;;;;0.40;0.40;;;;;;;;;;6120808;23;20051;-89
2022/11/18 15:36:34;;;;;;;0.40;0.40;;;;;;;;;;6147613;23;20072;-88
2022/11/18 15:39:00;;;;;;;0.40;0.40;;;;;;;;;;6098092;23;20037;-88
2022/11/18 15:41:31;;;;;;;0.40;0.40;;;;;;;;;;6120083;23;20073;-89
2022/11/18 15:44:02;;;;;;;0.60;0.60;;;;;;;;;;6146808;23;20021;-87
2022/11/18 15:46:37;;;;;;;0.50;0.50;;;;;;;;;;6119879;23;20018;-89
2022/11/18 15:49:12;;;;;;;0.30;0.30;;;;;;;;;;6122417;23;20041;-89
2022/11/18 15:51:41;;;;;;;0.40;0.40;;;;;;;;;;6120886;23;20041;-89
2022/11/18 15:54:10;;;;;;;0.40;0.40;;;;;;;;;;6123209;23;20018;-89
2022/11/18 15:56:40;;;;;;;0.30;0.30;;;;;;;;;;6121135;23;20005;-88
2022/11/18 15:59:14;;;;;;;0.82;0.82;;;;;;;;;;6121433;23;20065;-88
2022/11/18 16:01:42;;;;;;;0.20;0.20;;;;;;;;;;6147074;23;20025;-88
2022/11/18 16:04:09;;;;;;;0.40;0.40;;;;;;;;;;6122015;23;20026;-89
2022/11/18 16:06:36;;;;;;;0.50;0.50;;;;;;;;;;6143141;23;20026;-89
2022/11/18 16:09:06;;;;;;;0.40;0.40;;;;;;;;;;6119986;23;20038;-89
2022/11/18 16:14:18;;;;;;;0.40;0.40;;;;;;;;;;6144452;23;20017;-88
2022/11/18 16:16:48;;;;;;;0.40;0.40;;;;;;;;;;6119983;23;20024;-88
2022/11/18 16:19:32;;;;;;;0.43;0.43;;;;;;;;;;6121507;23;20026;-87
2022/11/18 16:22:41;;;;;;;0.35;0.35;;;;;;;;;;6102561;23;20444;-89
2022/11/18 16:25:10;;;;;;;0.60;0.60;;;;;;;;;;6121207;23;20054;-88
2022/11/18 16:27:37;;;;;;;0.57;0.57;;;;;;;;;;6097667;23;20380;-86
2022/11/18 16:31:38;;;;;;;0.52;0.52;;;;;;;;;;6144657;23;20010;-89
2022/11/18 16:32:55;;;;;;;0.45;0.45;;;;;;;;;;6144645;23;20074;-89
2022/11/18 16:35:21;;;;;;;0.50;0.50;;;;;;;;;;6116731;23;20053;-89
2022/11/18 16:37:47;;;;;;;0.40;0.40;;;;;;;;;;6118856;23;20022;-88
2022/11/18 16:40:13;;;;;;;0.40;0.40;;;;;;;;;;6119450;23;20025;-88
2022/11/18 16:42:40;;;;;;;0.40;0.40;;;;;;;;;;6121748;23;20045;-88
2022/11/18 16:45:10;;;;;;;0.30;0.30;;;;;;;;;;6145315;23;20085;-88
2022/11/18 16:47:39;;;;;;;0.60;0.60;;;;;;;;;;6122366;23;20101;-88
2022/11/18 16:50:07;;;;;;;0.40;0.40;;;;;;;;;;6121689;23;20017;-90
2022/11/18 16:52:33;;;;;;;0.40;0.40;;;;;;;;;;6119718;23;20069;-88